createdAt,value
2019-02-16T00:00:50.942Z,74.87
2019-02-16T00:03:20.086Z,72.63
2019-02-16T00:05:49.241Z,73.13
2019-02-16T00:08:18.431Z,72.60
2019-02-16T00:10:47.553Z,71.60
2019-02-16T00:13:16.788Z,73.43
2019-02-16T00:15:45.994Z,69.10
2019-02-16T00:18:15.150Z,70.40
2019-02-16T00:20:44.289Z,68.43
2019-02-16T00:23:13.481Z,68.43
2019-02-16T00:25:42.646Z,69.87
2019-02-16T00:28:11.818Z,70.23
2019-02-16T00:30:41.034Z,69.97
2019-02-16T00:33:10.190Z,70.90
2019-02-16T00:35:39.364Z,68.03
2019-02-16T00:38:08.578Z,70.10
2019-02-16T00:40:37.710Z,68.03
2019-02-16T00:43:06.844Z,65.83
2019-02-16T00:45:36.004Z,69.67
2019-02-16T00:48:05.222Z,71.33
2019-02-16T00:50:34.446Z,75.00
2019-02-16T00:53:03.605Z,68.53
2019-02-16T00:55:32.738Z,67.80
2019-02-16T00:58:01.965Z,67.53
2019-02-16T01:00:31.121Z,63.37
2019-02-16T01:03:00.337Z,65.20
2019-02-16T01:05:29.483Z,67.53
2019-02-16T01:07:58.681Z,61.90
2019-02-16T01:10:27.845Z,62.93
2019-02-16T01:12:57.042Z,64.23
2019-02-16T01:15:26.194Z,62.27
2019-02-16T01:17:55.337Z,63.20
2019-02-16T01:20:24.477Z,60.80
2019-02-16T01:22:53.631Z,60.83
2019-02-16T01:25:22.844Z,60.27
2019-02-16T01:27:52.030Z,67.53
2019-02-16T01:30:21.198Z,73.37
2019-02-16T01:32:50.362Z,72.43
2019-02-16T01:35:19.533Z,68.70
2019-02-16T01:37:48.702Z,69.90
2019-02-16T01:40:17.862Z,69.43
2019-02-16T01:42:47.079Z,64.00
2019-02-16T01:45:16.338Z,63.07
2019-02-16T01:47:45.509Z,58.37
2019-02-16T01:50:14.766Z,58.03
2019-02-16T01:52:43.907Z,55.27
2019-02-16T01:55:13.165Z,50.60
2019-02-16T01:57:42.314Z,53.83
2019-02-16T02:00:11.790Z,50.23
2019-02-16T02:02:40.937Z,51.13
2019-02-16T02:05:10.134Z,48.67
2019-02-16T02:07:39.546Z,50.90
2019-02-16T02:10:09.650Z,51.63
2019-02-16T02:12:38.837Z,50.20
2019-02-16T02:15:08.781Z,49.50
2019-02-16T02:17:37.941Z,49.23
2019-02-16T02:20:07.429Z,50.43
2019-02-16T02:22:36.597Z,48.47
2019-02-16T02:25:07.153Z,48.33
2019-02-16T02:27:36.342Z,47.60
2019-02-16T02:30:06.083Z,49.57
2019-02-16T02:32:35.298Z,49.17
2019-02-16T02:35:04.900Z,46.83
2019-02-16T02:37:34.067Z,46.73
2019-02-16T02:40:03.226Z,46.77
2019-02-16T02:42:32.381Z,50.10
2019-02-16T02:45:01.617Z,49.73
2019-02-16T02:47:31.139Z,49.70
2019-02-16T02:50:00.274Z,46.20
2019-02-16T02:52:29.425Z,44.53
2019-02-16T02:54:58.654Z,43.50
2019-02-16T02:57:27.838Z,44.43
2019-02-16T02:59:56.971Z,44.13
2019-02-16T03:02:26.208Z,45.43
2019-02-16T03:04:55.466Z,44.10
2019-02-16T03:07:24.669Z,41.67
2019-02-16T03:09:53.873Z,43.10
2019-02-16T03:12:23.050Z,41.03
2019-02-16T03:14:52.217Z,42.37
2019-02-16T03:17:21.454Z,42.50
2019-02-16T03:19:50.637Z,45.83
2019-02-16T03:22:19.811Z,47.57
2019-02-16T03:24:48.951Z,49.30
2019-02-16T03:27:54.192Z,52.73
2019-02-16T03:30:57.035Z,50.80
2019-02-16T03:33:47.507Z,52.57
2019-02-16T03:37:02.542Z,49.20
2019-02-16T03:39:35.430Z,51.57
2019-02-16T03:42:04.574Z,53.20
2019-02-16T03:44:33.698Z,53.20
2019-02-16T03:47:02.842Z,55.83
2019-02-16T03:49:31.986Z,53.40
2019-02-16T03:52:01.247Z,53.90
2019-02-16T03:54:30.386Z,53.27
2019-02-16T03:56:59.577Z,50.47
2019-02-16T03:59:28.870Z,50.67
2019-02-16T04:01:58.129Z,51.20
2019-02-16T04:04:27.355Z,48.87
2019-02-16T04:06:56.550Z,45.97
2019-02-16T04:09:25.701Z,45.00
2019-02-16T04:11:54.865Z,45.27
2019-02-16T04:14:24.031Z,43.80
2019-02-16T04:16:53.198Z,40.27
2019-02-16T04:19:22.396Z,42.83
2019-02-16T04:21:51.597Z,39.23
2019-02-16T04:24:20.736Z,38.83
2019-02-16T04:26:49.924Z,39.97
2019-02-16T04:29:19.062Z,41.07
2019-02-16T04:31:48.223Z,39.33
2019-02-16T04:34:17.494Z,39.00
2019-02-16T04:36:46.658Z,40.47
2019-02-16T04:39:15.953Z,43.00
2019-02-16T04:41:45.130Z,44.40
2019-02-16T04:44:14.274Z,44.87
2019-02-16T04:46:43.485Z,46.83
2019-02-16T04:49:12.690Z,46.77
2019-02-16T04:51:41.827Z,47.73
2019-02-16T04:54:10.945Z,46.87
2019-02-16T04:56:40.112Z,47.33
2019-02-16T04:59:09.314Z,46.47
2019-02-16T05:01:38.564Z,48.87
2019-02-16T05:04:07.702Z,46.37
2019-02-16T05:06:36.871Z,45.63
2019-02-16T05:09:07.607Z,48.83
2019-02-16T05:11:36.747Z,45.67
2019-02-16T05:14:05.886Z,47.63
2019-02-16T05:16:35.077Z,47.17
2019-02-16T05:19:04.218Z,46.23
2019-02-16T05:21:33.399Z,47.47
2019-02-16T05:24:02.645Z,44.70
2019-02-16T05:26:31.767Z,37.00
2019-02-16T05:29:00.947Z,38.93
2019-02-16T05:31:30.107Z,35.60
2019-02-16T05:33:59.226Z,38.77
2019-02-16T05:36:28.406Z,35.37
2019-02-16T05:38:57.629Z,36.00
2019-02-16T05:41:26.763Z,37.10
2019-02-16T05:43:56.054Z,36.67
2019-02-16T05:46:25.198Z,39.63
2019-02-16T05:48:54.370Z,37.40
2019-02-16T05:51:23.606Z,38.97
2019-02-16T05:53:52.762Z,39.13
2019-02-16T05:56:21.923Z,38.33
2019-02-16T05:58:51.065Z,37.00
2019-02-16T06:01:20.229Z,37.67
2019-02-16T06:03:49.354Z,35.90
2019-02-16T06:06:18.481Z,35.17
2019-02-16T06:08:47.741Z,34.13
2019-02-16T06:11:16.883Z,33.43
2019-02-16T06:13:48.910Z,33.43
2019-02-16T06:16:18.067Z,32.03
2019-02-16T06:18:48.106Z,31.73
2019-02-16T06:21:17.280Z,33.37
2019-02-16T06:23:48.110Z,33.67
2019-02-16T06:26:17.388Z,34.30
2019-02-16T06:28:47.652Z,34.43
2019-02-16T06:31:16.838Z,34.27
2019-02-16T06:33:46.110Z,35.60
2019-02-16T06:36:37.438Z,37.43
2019-02-16T06:39:06.783Z,40.00
2019-02-16T06:41:35.934Z,39.43
2019-02-16T06:44:05.183Z,42.43
2019-02-16T06:46:34.320Z,40.93
2019-02-16T06:49:03.467Z,42.53
2019-02-16T06:51:32.707Z,43.20
2019-02-16T06:54:01.855Z,43.20
2019-02-16T06:56:38.719Z,41.50
2019-02-16T06:59:07.889Z,41.03
2019-02-16T07:01:37.010Z,41.17
2019-02-16T07:04:06.170Z,41.13
2019-02-16T07:06:35.451Z,41.80
2019-02-16T07:09:05.628Z,43.10
2019-02-16T07:11:34.825Z,43.80
2019-02-16T07:14:03.996Z,46.67
2019-02-16T07:16:54.397Z,45.97
2019-02-16T07:19:29.802Z,46.13
2019-02-16T07:21:58.958Z,46.37
2019-02-16T07:24:28.123Z,49.03
2019-02-16T07:26:57.374Z,50.03
2019-02-16T07:29:26.580Z,46.33
2019-02-16T07:31:55.715Z,48.00
2019-02-16T07:34:24.887Z,46.90
2019-02-16T07:36:54.066Z,47.97
2019-02-16T07:39:23.242Z,45.73
2019-02-16T07:41:52.485Z,41.53
2019-02-16T07:44:39.444Z,42.20
2019-02-16T07:47:19.553Z,40.53
2019-02-16T07:49:57.354Z,39.17
2019-02-16T07:52:34.738Z,38.50
2019-02-16T07:55:20.707Z,38.57
2019-02-16T07:58:15.154Z,38.37
2019-02-16T08:00:56.620Z,36.83
2019-02-16T08:03:31.154Z,33.83
2019-02-16T08:06:27.906Z,31.30
2019-02-16T08:09:07.365Z,30.57
2019-02-16T08:11:58.299Z,30.37
2019-02-16T08:14:37.816Z,31.27
2019-02-16T08:17:19.806Z,31.60
2019-02-16T08:20:23.085Z,31.93
2019-02-16T08:23:10.115Z,31.77
2019-02-16T08:26:07.325Z,30.23
2019-02-16T08:28:58.499Z,28.37
2019-02-16T08:31:37.358Z,31.47
2019-02-16T08:34:37.457Z,29.13
2019-02-16T08:37:28.653Z,35.00
2019-02-16T08:40:13.211Z,32.87
2019-02-16T08:43:04.457Z,31.97
2019-02-16T08:45:46.226Z,32.17
2019-02-16T08:48:34.451Z,30.73
2019-02-16T08:51:14.120Z,30.57
2019-02-16T08:53:53.609Z,30.80
2019-02-16T08:56:57.186Z,29.60
2019-02-16T08:59:53.542Z,28.20
2019-02-16T09:02:33.969Z,27.90
2019-02-16T09:05:13.558Z,30.60
2019-02-16T09:08:04.016Z,31.20
2019-02-16T09:10:57.388Z,30.00
2019-02-16T09:13:44.445Z,30.53
2019-02-16T09:16:26.607Z,30.37
2019-02-16T09:19:14.870Z,30.80
2019-02-16T09:22:15.456Z,28.90
2019-02-16T09:24:53.754Z,26.03
2019-02-16T09:27:40.681Z,27.47
2019-02-16T09:30:20.486Z,28.03
2019-02-16T09:33:11.722Z,27.77
2019-02-16T09:36:00.046Z,30.13
2019-02-16T09:38:37.594Z,26.10
2019-02-16T09:41:24.484Z,23.37
2019-02-16T09:44:24.719Z,24.43
2019-02-16T09:47:12.914Z,24.60
2019-02-16T09:49:51.351Z,24.97
2019-02-16T09:52:26.990Z,24.73
2019-02-16T09:55:06.681Z,25.87
2019-02-16T09:58:07.279Z,26.03
2019-02-16T10:00:51.363Z,29.47
2019-02-16T10:03:35.577Z,25.43
2019-02-16T10:06:29.803Z,25.87
2019-02-16T10:09:13.414Z,24.67
2019-02-16T10:12:11.733Z,24.07
2019-02-16T10:14:58.738Z,24.27
2019-02-16T10:17:39.305Z,23.20
2019-02-16T10:20:34.286Z,23.27
2019-02-16T10:23:34.758Z,23.70
2019-02-16T10:26:10.485Z,24.43
2019-02-16T10:28:47.698Z,26.20
2019-02-16T10:31:38.994Z,26.30
2019-02-16T10:34:26.208Z,24.17
2019-02-16T10:37:03.598Z,21.73
2019-02-16T10:39:54.659Z,22.93
2019-02-16T10:42:36.762Z,21.60
2019-02-16T10:45:19.942Z,21.30
2019-02-16T10:48:07.118Z,22.10
2019-02-16T10:50:43.583Z,20.73
2019-02-16T10:53:31.989Z,20.90
2019-02-16T10:56:16.863Z,20.03
2019-02-16T10:59:14.102Z,18.90
2019-02-16T11:02:01.098Z,19.70
2019-02-16T11:04:52.234Z,17.97
2019-02-16T11:07:34.874Z,19.53
2019-02-16T11:10:14.043Z,20.17
2019-02-16T11:12:55.903Z,20.00
2019-02-16T11:15:44.416Z,20.27
2019-02-16T11:18:36.498Z,18.50
2019-02-16T11:21:33.777Z,17.73
2019-02-16T11:24:20.593Z,17.87
2019-02-16T11:27:10.606Z,17.83
2019-02-16T11:29:57.634Z,16.73
2019-02-16T11:32:44.818Z,15.20
2019-02-16T11:35:26.248Z,15.10
2019-02-16T11:38:13.636Z,14.60
2019-02-16T11:41:04.866Z,16.07
2019-02-16T11:44:03.222Z,14.23
2019-02-16T11:47:09.626Z,14.80
2019-02-16T11:49:57.802Z,13.90
2019-02-16T11:52:44.611Z,14.97
2019-02-16T11:55:24.720Z,15.80
2019-02-16T11:58:14.928Z,14.50
2019-02-16T12:01:15.506Z,12.63
2019-02-16T12:04:12.634Z,12.27
2019-02-16T12:06:52.057Z,10.77
2019-02-16T12:09:31.889Z,13.13
2019-02-16T12:12:11.758Z,13.83
2019-02-16T12:14:57.226Z,13.03
2019-02-16T12:17:44.278Z,15.30
2019-02-16T12:20:33.650Z,15.07
2019-02-16T12:23:19.220Z,16.47
2019-02-16T12:25:57.146Z,15.47
2019-02-16T12:28:34.287Z,14.03
2019-02-16T12:31:31.572Z,12.57
2019-02-16T12:34:25.650Z,11.80
2019-02-16T12:37:19.339Z,12.07
2019-02-16T12:40:03.706Z,12.87
2019-02-16T12:42:50.553Z,12.40
2019-02-16T12:45:30.239Z,13.90
2019-02-16T12:48:18.086Z,14.80
2019-02-16T12:51:18.461Z,16.13
2019-02-16T12:54:05.332Z,14.87
2019-02-16T12:56:59.726Z,15.63
2019-02-16T12:59:54.022Z,16.00
2019-02-16T13:02:54.466Z,17.70
2019-02-16T13:05:39.009Z,20.00
2019-02-16T13:08:12.224Z,19.50
2019-02-16T13:10:57.379Z,18.87
2019-02-16T13:13:44.289Z,17.47
2019-02-16T13:16:41.768Z,18.03
2019-02-16T13:19:35.945Z,17.40
2019-02-16T13:22:27.400Z,18.33
2019-02-16T13:25:02.398Z,17.27
2019-02-16T13:27:56.866Z,17.23
2019-02-16T13:30:38.301Z,15.90
2019-02-16T13:33:27.497Z,18.27
2019-02-16T13:36:18.471Z,17.10
2019-02-16T13:39:06.734Z,16.23
2019-02-16T13:42:04.382Z,16.10
2019-02-16T13:44:55.435Z,21.07
2019-02-16T13:47:46.430Z,20.93
2019-02-16T13:50:23.074Z,21.50
2019-02-16T13:53:11.291Z,17.43
2019-02-16T13:56:05.776Z,17.80
2019-02-16T13:58:47.730Z,17.93
2019-02-16T14:01:30.680Z,18.90
2019-02-16T14:04:16.642Z,21.33
2019-02-16T14:07:07.633Z,22.33
2019-02-16T14:09:58.870Z,22.17
2019-02-16T14:12:42.105Z,20.67
2019-02-16T14:15:21.170Z,19.23
2019-02-16T14:17:51.663Z,17.13
2019-02-16T14:20:21.019Z,18.30
2019-02-16T14:22:50.330Z,20.10
2019-02-16T14:25:24.982Z,20.40
2019-02-16T14:27:54.186Z,18.67
2019-02-16T14:30:23.328Z,20.53
2019-02-16T14:32:52.514Z,18.93
2019-02-16T14:35:21.690Z,20.07
2019-02-16T14:38:08.698Z,21.43
2019-02-16T14:40:37.969Z,21.67
2019-02-16T14:43:07.126Z,20.97
2019-02-16T14:45:39.092Z,21.00
2019-02-16T14:48:08.266Z,21.40
2019-02-16T14:50:37.410Z,20.03
2019-02-16T14:53:06.586Z,17.97
2019-02-16T14:55:35.818Z,20.43
2019-02-16T14:58:05.000Z,20.23
2019-02-16T15:00:34.235Z,20.17
2019-02-16T15:03:03.465Z,19.70
2019-02-16T15:05:32.613Z,16.83
2019-02-16T15:08:01.823Z,18.57
2019-02-16T15:10:31.098Z,15.87
2019-02-16T15:13:00.282Z,15.43
2019-02-16T15:15:29.555Z,15.90
2019-02-16T15:17:58.779Z,17.37
2019-02-16T15:20:28.102Z,16.73
2019-02-16T15:22:57.273Z,16.57
2019-02-16T15:25:26.502Z,16.93
2019-02-16T15:27:55.681Z,16.53
2019-02-16T15:30:24.927Z,17.83
2019-02-16T15:32:54.186Z,17.63
2019-02-16T15:35:23.371Z,17.23
2019-02-16T15:37:52.536Z,15.03
2019-02-16T15:40:21.774Z,17.70
2019-02-16T15:42:51.049Z,18.47
2019-02-16T15:45:20.219Z,18.13
2019-02-16T15:47:49.418Z,18.93
2019-02-16T15:50:18.641Z,19.63
2019-02-16T15:52:47.862Z,19.67
2019-02-16T15:55:17.027Z,21.87
2019-02-16T15:57:46.163Z,21.53
2019-02-16T16:00:23.664Z,22.63
2019-02-16T16:02:52.874Z,23.47
2019-02-16T16:05:22.021Z,24.00
2019-02-16T16:07:58.877Z,24.63
2019-02-16T16:10:34.771Z,25.00
2019-02-16T16:13:22.037Z,24.10
2019-02-16T16:16:01.517Z,26.27
2019-02-16T16:18:55.530Z,26.10
2019-02-16T16:21:49.592Z,25.23
2019-02-16T16:24:37.954Z,26.50
2019-02-16T16:27:19.638Z,27.47
2019-02-16T16:30:07.008Z,29.83
2019-02-16T16:32:58.286Z,27.83
2019-02-16T16:35:46.102Z,29.33
2019-02-16T16:38:29.771Z,27.67
2019-02-16T16:41:21.054Z,29.00
2019-02-16T16:44:08.171Z,31.53
2019-02-16T16:46:59.471Z,30.30
2019-02-16T16:50:00.098Z,31.27
2019-02-16T16:53:00.295Z,32.87
2019-02-16T16:55:47.476Z,32.27
2019-02-16T16:58:34.407Z,32.60
2019-02-16T17:01:22.619Z,31.67
2019-02-16T17:04:29.213Z,33.63
2019-02-16T17:07:20.434Z,34.13
2019-02-16T17:10:14.667Z,36.33
2019-02-16T17:12:53.069Z,37.43
2019-02-16T17:15:41.322Z,39.27
2019-02-16T17:18:28.410Z,42.77
2019-02-16T17:21:25.741Z,38.83
2019-02-16T17:24:22.943Z,40.63
2019-02-16T17:27:14.182Z,39.57
2019-02-16T17:30:01.138Z,44.27
2019-02-16T17:32:48.251Z,44.07
2019-02-16T17:35:36.553Z,44.87
2019-02-16T17:38:29.841Z,46.37
2019-02-16T17:41:14.302Z,44.20
2019-02-16T17:43:55.734Z,46.90
2019-02-16T17:46:43.534Z,49.50
2019-02-16T17:49:28.632Z,53.40
2019-02-16T17:52:19.891Z,50.17
2019-02-16T17:55:08.122Z,52.57
2019-02-16T17:58:02.483Z,52.60
2019-02-16T18:01:02.581Z,53.70
2019-02-16T18:04:08.942Z,50.13
2019-02-16T18:06:55.902Z,46.77
2019-02-16T18:09:59.229Z,42.57
2019-02-16T18:12:53.248Z,43.27
2019-02-16T18:15:41.526Z,43.20
2019-02-16T18:18:22.162Z,41.43
2019-02-16T18:21:10.391Z,44.33
2019-02-16T18:24:10.791Z,41.53
2019-02-16T18:26:56.942Z,40.90
2019-02-16T18:29:54.002Z,41.47
2019-02-16T18:32:41.036Z,40.30
2019-02-16T18:35:47.990Z,39.77
2019-02-16T18:38:48.389Z,39.70
2019-02-16T18:41:35.334Z,41.57
2019-02-16T18:44:23.939Z,41.30
2019-02-16T18:47:12.118Z,42.50
2019-02-16T18:49:59.132Z,36.00
2019-02-16T18:53:02.718Z,34.87
2019-02-16T18:55:48.092Z,32.27
2019-02-16T18:58:42.597Z,28.63
2019-02-16T19:01:30.823Z,30.37
2019-02-16T19:04:18.026Z,26.83
2019-02-16T19:07:18.481Z,26.50
2019-02-16T19:09:58.128Z,24.40
2019-02-16T19:13:01.785Z,23.30
2019-02-16T19:16:02.178Z,26.47
2019-02-16T19:18:49.702Z,26.77
2019-02-16T19:21:28.310Z,25.97
2019-02-16T19:24:15.443Z,33.43
2019-02-16T19:27:16.230Z,42.67
2019-02-16T19:29:55.086Z,46.17
2019-02-16T19:32:40.284Z,49.73
2019-02-16T19:35:19.419Z,46.83
2019-02-16T19:38:04.066Z,46.00
2019-02-16T19:40:58.319Z,44.40
2019-02-16T19:43:58.833Z,43.97
2019-02-16T19:46:47.510Z,44.73
2019-02-16T19:49:32.826Z,42.97
2019-02-16T19:52:27.474Z,43.87
2019-02-16T19:55:21.445Z,41.23
2019-02-16T19:58:10.322Z,37.90
2019-02-16T20:01:01.311Z,37.53
2019-02-16T20:04:01.587Z,39.57
2019-02-16T20:06:43.514Z,35.00
2019-02-16T20:09:27.771Z,34.83
2019-02-16T20:12:16.054Z,37.90
2019-02-16T20:14:54.023Z,34.90
2019-02-16T20:17:31.121Z,37.10
2019-02-16T20:20:37.498Z,35.23
2019-02-16T20:23:43.876Z,37.17
2019-02-16T20:26:25.781Z,34.73
2019-02-16T20:29:04.543Z,44.23
2019-02-16T20:31:51.350Z,41.93
2019-02-16T20:34:33.333Z,43.00
2019-02-16T20:37:27.540Z,38.13
2019-02-16T20:40:21.822Z,40.20
2019-02-16T20:43:13.030Z,41.20
2019-02-16T20:46:10.778Z,46.20
2019-02-16T20:48:59.014Z,49.40
2019-02-16T20:51:53.195Z,51.63
2019-02-16T20:54:40.112Z,47.50
2019-02-16T20:57:18.289Z,45.30
2019-02-16T21:00:04.426Z,42.23
2019-02-16T21:02:51.372Z,42.00
2019-02-16T21:05:31.905Z,38.30
2019-02-16T21:08:18.775Z,36.00
2019-02-16T21:11:10.259Z,36.00
2019-02-16T21:13:57.984Z,33.73
2019-02-16T21:16:55.233Z,33.43
2019-02-16T21:19:42.374Z,32.60
2019-02-16T21:22:42.922Z,35.63
2019-02-16T21:25:29.545Z,35.93
2019-02-16T21:28:24.523Z,32.83
2019-02-16T21:31:18.312Z,32.77
2019-02-16T21:34:05.086Z,31.27
2019-02-16T21:36:48.661Z,32.00
2019-02-16T21:39:35.628Z,33.10
2019-02-16T21:42:30.099Z,32.07
2019-02-16T21:45:10.169Z,30.47
2019-02-16T21:47:57.270Z,32.00
2019-02-16T21:50:49.875Z,29.37
2019-02-16T21:53:32.253Z,28.97
2019-02-16T21:56:23.198Z,27.63
2019-02-16T21:59:18.882Z,26.63
2019-02-16T22:01:55.918Z,25.47
2019-02-16T22:04:34.794Z,27.67
2019-02-16T22:07:21.781Z,25.27
2019-02-16T22:10:03.509Z,28.23
2019-02-16T22:12:52.534Z,26.67
2019-02-16T22:15:22.114Z,28.33
2019-02-16T22:17:51.252Z,30.80
2019-02-16T22:20:20.410Z,33.53
2019-02-16T22:22:49.564Z,30.20
2019-02-16T22:25:21.208Z,28.87
2019-02-16T22:27:49.662Z,30.07
2019-02-16T22:30:18.906Z,31.80
2019-02-16T22:32:48.030Z,32.30
2019-02-16T22:35:17.239Z,31.47
2019-02-16T22:37:46.533Z,31.27
2019-02-16T22:40:15.721Z,29.47
2019-02-16T22:42:44.889Z,30.60
2019-02-16T22:45:14.250Z,29.80
2019-02-16T22:47:43.394Z,29.63
2019-02-16T22:50:12.814Z,28.83
2019-02-16T22:52:42.103Z,29.03
2019-02-16T22:55:11.268Z,29.47
2019-02-16T22:57:40.439Z,27.27
2019-02-16T23:00:27.546Z,26.17
2019-02-16T23:02:56.800Z,25.67
2019-02-16T23:05:25.997Z,25.20
2019-02-16T23:07:55.227Z,25.57
2019-02-16T23:10:24.383Z,24.60
2019-02-16T23:12:53.641Z,23.43
2019-02-16T23:15:22.806Z,24.23
2019-02-16T23:17:51.974Z,25.17
2019-02-16T23:20:21.194Z,23.17
2019-02-16T23:22:50.478Z,23.43
2019-02-16T23:25:19.671Z,23.43
2019-02-16T23:27:48.858Z,23.23
2019-02-16T23:30:18.003Z,22.33
2019-02-16T23:32:47.234Z,22.40
2019-02-16T23:35:16.418Z,22.70
2019-02-16T23:37:45.546Z,21.83
2019-02-16T23:40:14.669Z,22.50
2019-02-16T23:42:43.926Z,22.53
2019-02-16T23:45:13.146Z,22.53
2019-02-16T23:47:42.318Z,22.77
2019-02-16T23:50:11.470Z,23.73
2019-02-16T23:52:40.682Z,22.20
2019-02-16T23:55:10.186Z,21.70
2019-02-16T23:57:39.318Z,22.67
